Terminal Aerodrome Forecast
Issued by NWS

Home | Current Version | Previous Version | Text Only | Print | Product List | Glossary On
Versions: 1 2 3 4 5 6 7 8 9 10 11 12 13 14 15 16
000
FTUS41 KBOX 250529
TAFBAF
TAF
KBAF 250529Z 2506/2606 00000KT P6SM BKN140
     FM251200 04010KT 5SM -RA OVC045
     FM251400 04011G18KT 5SM -RA OVC015
     FM252100 05007KT 5SM BR VCSH OVC010
     FM260100 05008KT 3SM -RA BR OVC008=

USA.gov is the U.S. government's official web portal to all federal, state and local government web resources and services.